Station History

Weather Underground - logo

Station Historical Data
Daily Summary for July 15, 2017 Units:  English    Metric   Both
« Previous Day
Next Day »
Daily Weekly Monthly Yearly Custom
  High: Low: Average:
Temperature: 100.9 °F 66.9 °F 84.5 °F
Dew Point: 68.0 °F 52.8 °F 62.3 °F
Humidity: 83 % 21 % 52 %
Wind Speed: 6.0 mph 0.0 mph 1.3 mph
Wind Gust: 6.0 mph - -
Wind:- - SW
Pressure: 29.93 in 29.80 in -
Precipitation: 0.00 in    
Historical Graphs
 
 
Tabular Data for July 15, 2017
Time Temperature Dew Point Pressure Wind Wind Speed Wind Gust Humidity Rainfall Rate (Hourly)
00:02 77.4 °F 64.7 °F 29.88 in Calm     65 % 0.00 in
00:07 77.1 °F 64.0 °F 29.88 in Calm     64 % 0.00 in
00:12 77.9 °F 62.9 °F 29.88 in Calm     60 % 0.00 in
00:17 78.5 °F 61.5 °F 29.88 in Calm     56 % 0.00 in
00:22 79.1 °F 61.5 °F 29.88 in Calm     55 % 0.00 in
00:27 79.2 °F 62.7 °F 29.88 in Calm     57 % 0.00 in
00:33 78.9 °F 61.9 °F 29.89 in Calm     56 % 0.00 in
00:38 78.3 °F 61.8 °F 29.89 in Calm     57 % 0.00 in
00:43 77.7 °F 63.6 °F 29.89 in Calm     62 % 0.00 in
00:48 76.8 °F 63.2 °F 29.89 in Calm     63 % 0.00 in
00:53 76.1 °F 63.0 °F 29.89 in Calm     64 % 0.00 in
00:58 75.7 °F 63.5 °F 29.88 in Calm     66 % 0.00 in
01:03 75.3 °F 63.2 °F 29.88 in Calm     66 % 0.00 in
01:08 75.0 °F 64.1 °F 29.88 in Calm     69 % 0.00 in
01:13 74.6 °F 64.2 °F 29.88 in Calm     70 % 0.00 in
01:18 74.4 °F 64.4 °F 29.88 in Calm     71 % 0.00 in
01:23 74.4 °F 64.0 °F 29.88 in Calm     70 % 0.00 in
01:28 75.0 °F 61.5 °F 29.89 in Calm     63 % 0.00 in
01:33 76.0 °F 60.2 °F 29.89 in Calm     58 % 0.00 in
01:38 76.4 °F 61.5 °F 29.89 in Calm     60 % 0.00 in
01:43 76.2 °F 61.3 °F 29.89 in Calm     60 % 0.00 in
01:48 75.6 °F 61.2 °F 29.89 in Calm     61 % 0.00 in
01:53 75.2 °F 63.1 °F 29.88 in Calm     66 % 0.00 in
01:58 74.6 °F 62.9 °F 29.88 in Calm     67 % 0.00 in
02:03 74.0 °F 61.9 °F 29.88 in Calm     66 % 0.00 in
02:08 73.5 °F 61.9 °F 29.88 in Calm     67 % 0.00 in
02:13 73.1 °F 61.1 °F 29.89 in Calm     66 % 0.00 in
02:18 73.0 °F 61.4 °F 29.88 in Calm     67 % 0.00 in
02:23 72.8 °F 62.0 °F 29.88 in Calm     69 % 0.00 in
02:28 72.6 °F 61.8 °F 29.88 in Calm     69 % 0.00 in
02:33 72.3 °F 62.8 °F 29.88 in Calm     72 % 0.00 in
02:38 72.0 °F 63.3 °F 29.88 in Calm     74 % 0.00 in
02:43 71.7 °F 62.6 °F 29.88 in Calm     73 % 0.00 in
02:48 71.4 °F 61.9 °F 29.89 in Calm     72 % 0.00 in
02:53 71.1 °F 62.4 °F 29.89 in Calm     74 % 0.00 in
02:58 70.8 °F 62.5 °F 29.88 in Calm     75 % 0.00 in
03:03 70.4 °F 62.8 °F 29.88 in Calm     77 % 0.00 in
03:08 70.0 °F 62.8 °F 29.88 in Calm     78 % 0.00 in
03:13 69.7 °F 63.3 °F 29.89 in Calm     80 % 0.00 in
03:18 69.6 °F 63.2 °F 29.88 in Calm     80 % 0.00 in
03:21 69.6 °F 63.2 °F 29.88 in Calm     80 % 0.00 in
03:26 69.7 °F 63.3 °F 29.89 in Calm     80 % 0.00 in
03:31 69.6 °F 63.2 °F 29.89 in Calm     80 % 0.00 in
03:36 69.5 °F 62.7 °F 29.89 in Calm     79 % 0.00 in
03:41 69.4 °F 62.6 °F 29.89 in Calm     79 % 0.00 in
03:46 69.2 °F 62.8 °F 29.89 in Calm     80 % 0.00 in
03:51 69.0 °F 62.9 °F 29.89 in Calm     81 % 0.00 in
03:56 68.7 °F 62.6 °F 29.89 in Calm     81 % 0.00 in
04:01 68.5 °F 62.8 °F 29.89 in Calm     82 % 0.00 in
04:06 68.3 °F 62.6 °F 29.89 in Calm     82 % 0.00 in
04:11 68.3 °F 62.6 °F 29.89 in Calm     82 % 0.00 in
04:16 68.2 °F 62.5 °F 29.89 in Calm     82 % 0.00 in
04:21 68.1 °F 62.4 °F 29.89 in Calm     82 % 0.00 in
04:26 68.0 °F 62.3 °F 29.89 in Calm     82 % 0.00 in
04:31 67.9 °F 62.2 °F 29.89 in Calm     82 % 0.00 in
04:36 67.9 °F 61.9 °F 29.89 in Calm     81 % 0.00 in
04:41 67.9 °F 61.9 °F 29.89 in Calm     81 % 0.00 in
04:46 68.1 °F 62.0 °F 29.90 in Calm     81 % 0.00 in
04:51 68.1 °F 62.0 °F 29.90 in Calm     81 % 0.00 in
04:56 68.1 °F 62.0 °F 29.90 in Calm     81 % 0.00 in
05:01 68.1 °F 62.0 °F 29.90 in Calm     81 % 0.00 in
05:06 68.1 °F 62.0 °F 29.90 in Calm     81 % 0.00 in
05:12 68.0 °F 61.9 °F 29.90 in Calm     81 % 0.00 in
05:17 67.8 °F 62.1 °F 29.90 in Calm     82 % 0.00 in
05:22 67.6 °F 61.9 °F 29.91 in Calm     82 % 0.00 in
05:27 67.5 °F 61.8 °F 29.91 in Calm     82 % 0.00 in
05:32 67.3 °F 62.0 °F 29.91 in Calm     83 % 0.00 in
05:37 67.2 °F 61.9 °F 29.91 in Calm     83 % 0.00 in
05:42 67.1 °F 61.8 °F 29.91 in Calm     83 % 0.00 in
05:47 67.1 °F 61.8 °F 29.91 in Calm     83 % 0.00 in
05:52 67.1 °F 61.8 °F 29.91 in Calm     83 % 0.00 in
05:57 67.0 °F 61.7 °F 29.91 in Calm     83 % 0.00 in
06:02 67.0 °F 61.7 °F 29.91 in NW 1.2 mph   83 % 0.00 in
06:07 67.0 °F 61.7 °F 29.92 in Calm     83 % 0.00 in
06:12 66.9 °F 61.6 °F 29.92 in Calm     83 % 0.00 in
06:17 66.9 °F 61.6 °F 29.92 in Calm     83 % 0.00 in
06:22 67.0 °F 61.7 °F 29.92 in Calm     83 % 0.00 in
06:27 67.1 °F 61.8 °F 29.92 in Calm     83 % 0.00 in
06:32 67.2 °F 61.9 °F 29.93 in Calm     83 % 0.00 in
06:37 67.4 °F 61.7 °F 29.92 in NW 1.2 mph 1.2 mph 82 % 0.00 in
06:42 67.6 °F 61.6 °F 29.93 in NW 1.2 mph   81 % 0.00 in
06:47 67.8 °F 61.8 °F 29.93 in Calm     81 % 0.00 in
06:52 68.1 °F 61.7 °F 29.93 in Calm     80 % 0.00 in
06:57 69.0 °F 62.2 °F 29.93 in Calm     79 % 0.00 in
07:02 69.9 °F 62.4 °F 29.93 in NW 1.2 mph 1.2 mph 77 % 0.00 in
07:07 70.6 °F 62.7 °F 29.93 in Calm   0.1 mph 76 % 0.00 in
07:12 71.1 °F 62.8 °F 29.93 in ESE 1.2 mph   75 % 0.00 in
07:17 71.7 °F 63.0 °F 29.93 in SSE 1.2 mph 1.2 mph 74 % 0.00 in
07:22 72.5 °F 63.0 °F 29.93 in SSE 1.2 mph 1.2 mph 72 % 0.00 in
07:27 73.0 °F 63.0 °F 29.93 in East 1.2 mph   71 % 0.00 in
07:32 73.3 °F 62.9 °F 29.93 in ESE 1.2 mph 1.2 mph 70 % 0.00 in
07:37 73.6 °F 62.8 °F 29.93 in ENE 2.3 mph 2.3 mph 69 % 0.00 in
07:42 74.0 °F 63.2 °F 29.93 in East 1.2 mph   69 % 0.00 in
07:47 74.5 °F 62.8 °F 29.93 in East 1.2 mph 1.2 mph 67 % 0.00 in
07:52 74.8 °F 63.1 °F 29.93 in SE 3.5 mph 3.5 mph 67 % 0.00 in
07:57 75.4 °F 63.7 °F 29.93 in SE 1.2 mph 1.2 mph 67 % 0.00 in
08:02 76.3 °F 63.7 °F 29.93 in SSE 2.3 mph   65 % 0.00 in
08:07 77.1 °F 64.0 °F 29.93 in SSE 2.3 mph 2.3 mph 64 % 0.00 in
08:13 77.7 °F 64.5 °F 29.93 in SSE 2.3 mph 2.3 mph 64 % 0.00 in
08:18 78.5 °F 64.4 °F 29.93 in SW 1.0 mph 1.0 mph 62 % 0.00 in
08:23 78.9 °F 64.3 °F 29.93 in East 2.0 mph 2.0 mph 61 % 0.00 in
08:28 79.2 °F 63.6 °F 29.93 in ESE 3.5 mph 3.5 mph 59 % 0.00 in
08:33 79.3 °F 64.2 °F 29.93 in ENE 3.0 mph 3.0 mph 60 % 0.00 in
08:38 79.7 °F 64.6 °F 29.93 in ENE 2.3 mph 2.3 mph 60 % 0.00 in
08:43 80.2 °F 64.1 °F 29.93 in East 3.5 mph 3.5 mph 58 % 0.00 in
08:48 80.6 °F 64.9 °F 29.93 in SSE 1.2 mph   59 % 0.00 in
08:53 80.8 °F 64.1 °F 29.93 in East 2.3 mph 2.3 mph 57 % 0.00 in
08:58 81.1 °F 64.9 °F 29.93 in SSE 1.2 mph 1.2 mph 58 % 0.00 in
09:03 81.7 °F 65.0 °F 29.93 in SE 1.2 mph 1.2 mph 57 % 0.00 in
09:08 82.3 °F 65.0 °F 29.93 in SE 1.2 mph 1.2 mph 56 % 0.00 in
09:13 82.5 °F 64.7 °F 29.93 in SE 3.5 mph 3.5 mph 55 % 0.00 in
09:18 83.0 °F 64.6 °F 29.93 in ENE 3.5 mph 3.5 mph 54 % 0.00 in
09:23 83.4 °F 64.5 °F 29.93 in SE 3.5 mph 3.5 mph 53 % 0.00 in
09:28 83.5 °F 65.1 °F 29.93 in ESE 3.5 mph 3.5 mph 54 % 0.00 in
09:33 84.1 °F 66.2 °F 29.93 in East 1.2 mph 1.2 mph 55 % 0.00 in
09:38 84.6 °F 65.0 °F 29.93 in SE 5.8 mph 5.8 mph 52 % 0.00 in
09:43 84.7 °F 65.1 °F 29.93 in ENE 3.5 mph 3.5 mph 52 % 0.00 in
09:48 85.3 °F 66.2 °F 29.93 in SE 2.3 mph 2.3 mph 53 % 0.00 in
09:53 85.8 °F 65.6 °F 29.93 in SSE 2.3 mph 2.3 mph 51 % 0.00 in
09:58 86.1 °F 64.7 °F 29.93 in SSE 3.5 mph 3.5 mph 49 % 0.00 in
10:03 86.5 °F 65.1 °F 29.93 in ENE 2.3 mph 2.3 mph 49 % 0.00 in
10:08 86.9 °F 66.0 °F 29.93 in ESE 2.3 mph 2.3 mph 50 % 0.00 in
10:13 87.0 °F 65.5 °F 29.93 in SSW 4.6 mph 4.6 mph 49 % 0.00 in
10:18 87.1 °F 67.3 °F 29.93 in SSE 2.3 mph   52 % 0.00 in
10:23 87.1 °F 65.6 °F 29.93 in North 2.3 mph 2.3 mph 49 % 0.00 in
10:28 86.8 °F 65.9 °F 29.93 in NNE 3.5 mph 3.5 mph 50 % 0.00 in
10:33 86.7 °F 65.8 °F 29.93 in SSE 2.3 mph 2.3 mph 50 % 0.00 in
10:38 87.3 °F 67.0 °F 29.93 in SSE 2.0 mph 2.0 mph 51 % 0.00 in
10:43 87.7 °F 66.2 °F 29.92 in ENE 1.2 mph 1.2 mph 49 % 0.00 in
10:48 88.2 °F 66.0 °F 29.93 in South 2.3 mph 2.3 mph 48 % 0.00 in
10:53 88.1 °F 66.5 °F 29.93 in SSE 2.3 mph 2.3 mph 49 % 0.00 in
10:58 88.1 °F 65.9 °F 29.92 in ESE 3.5 mph 3.5 mph 48 % 0.00 in
11:03 88.4 °F 68.0 °F 29.92 in SW 2.3 mph   51 % 0.00 in
11:08 88.9 °F 66.1 °F 29.92 in SE 2.3 mph 2.3 mph 47 % 0.00 in
11:14 89.2 °F 65.7 °F 29.92 in SSE 1.2 mph 1.2 mph 46 % 0.00 in
11:19 89.2 °F 64.4 °F 29.92 in North 2.3 mph 2.3 mph 44 % 0.00 in
11:24 88.9 °F 66.1 °F 29.92 in South 2.0 mph 2.0 mph 47 % 0.00 in
11:29 89.2 °F 66.3 °F 29.92 in ESE 1.2 mph 1.2 mph 47 % 0.00 in
11:34 90.0 °F 67.1 °F 29.92 in WNW 3.5 mph 3.5 mph 47 % 0.00 in
11:39 90.1 °F 65.2 °F 29.92 in WNW 1.2 mph 1.2 mph 44 % 0.00 in
11:44 90.0 °F 66.4 °F 29.92 in SE 1.2 mph   46 % 0.00 in
11:49 90.7 °F 66.4 °F 29.92 in SE 2.3 mph 2.3 mph 45 % 0.00 in
11:54 91.3 °F 65.0 °F 29.92 in WSW 2.3 mph 2.3 mph 42 % 0.00 in
11:59 91.2 °F 65.6 °F 29.92 in WSW 3.0 mph 3.0 mph 43 % 0.00 in
12:04 91.4 °F 65.8 °F 29.92 in ESE 1.2 mph 1.2 mph 43 % 0.00 in
12:09 91.4 °F 65.8 °F 29.92 in WSW 1.2 mph 1.2 mph 43 % 0.00 in
12:14 92.0 °F 66.3 °F 29.92 in NNW 1.2 mph 1.2 mph 43 % 0.00 in
12:19 92.4 °F 68.0 °F 29.92 in Calm   0.3 mph 45 % 0.00 in
12:24 92.8 °F 65.6 °F 29.92 in SSE 2.3 mph 2.3 mph 41 % 0.00 in
12:29 92.8 °F 67.0 °F 29.92 in WSW 1.2 mph 1.2 mph 43 % 0.00 in
12:34 93.2 °F 67.4 °F 29.92 in SE 1.2 mph 1.2 mph 43 % 0.00 in
12:39 93.6 °F 64.9 °F 29.92 in NW 2.3 mph 2.3 mph 39 % 0.00 in
12:44 93.8 °F 67.2 °F 29.92 in SE 2.3 mph 2.3 mph 42 % 0.00 in
12:49 94.0 °F 66.0 °F 29.92 in NW 1.2 mph 1.2 mph 40 % 0.00 in
12:54 94.0 °F 66.7 °F 29.92 in ESE 3.5 mph 3.5 mph 41 % 0.00 in
12:59 94.1 °F 66.8 °F 29.91 in WSW 2.3 mph 2.3 mph 41 % 0.00 in
13:04 94.1 °F 63.1 °F 29.91 in SE 3.5 mph 3.5 mph 36 % 0.00 in
13:09 94.3 °F 65.5 °F 29.91 in WNW 2.0 mph 2.0 mph 39 % 0.00 in
13:14 94.5 °F 63.4 °F 29.91 in ENE 2.3 mph 2.3 mph 36 % 0.00 in
13:19 94.7 °F 65.1 °F 29.91 in SSE 2.3 mph 2.3 mph 38 % 0.00 in
13:24 94.8 °F 65.2 °F 29.91 in NE 1.2 mph 1.2 mph 38 % 0.00 in
13:29 95.2 °F 65.6 °F 29.90 in SE 2.3 mph 2.3 mph 38 % 0.00 in
13:34 95.8 °F 66.1 °F 29.90 in WNW 2.3 mph 2.3 mph 38 % 0.00 in
13:39 96.2 °F 65.7 °F 29.90 in NNE 2.3 mph 2.3 mph 37 % 0.00 in
13:44 96.3 °F 65.0 °F 29.89 in NNE 1.2 mph   36 % 0.00 in
13:50 96.6 °F 65.3 °F 29.89 in NNW 2.3 mph 2.3 mph 36 % 0.00 in
13:55 96.6 °F 65.3 °F 29.89 in WNW 1.2 mph 1.2 mph 36 % 0.00 in
13:57 96.6 °F 63.6 °F 29.89 in NW 4.6 mph 4.6 mph 34 % 0.00 in
14:02 96.2 °F 64.1 °F 29.89 in ENE 3.5 mph 3.5 mph 35 % 0.00 in
14:07 96.3 °F 63.4 °F 29.89 in ESE 1.0 mph 1.0 mph 34 % 0.00 in
14:12 97.2 °F 65.0 °F 29.89 in WNW 2.0 mph 2.0 mph 35 % 0.00 in
14:17 97.1 °F 60.5 °F 29.88 in South 3.5 mph 3.5 mph 30 % 0.00 in
14:22 97.8 °F 61.1 °F 29.88 in SE 1.2 mph   30 % 0.00 in
14:27 98.1 °F 61.4 °F 29.88 in SSE 1.2 mph 1.2 mph 30 % 0.00 in
14:32 98.5 °F 61.7 °F 29.88 in NNW 2.3 mph 2.3 mph 30 % 0.00 in
14:37 98.8 °F 67.2 °F 29.88 in SSE 1.2 mph 1.2 mph 36 % 0.00 in
14:42 99.6 °F 66.2 °F 29.88 in SE 2.3 mph 2.3 mph 34 % 0.00 in
14:47 99.7 °F 64.6 °F 29.87 in North 2.3 mph 2.3 mph 32 % 0.00 in
14:52 99.8 °F 65.6 °F 29.87 in Calm   0.2 mph 33 % 0.00 in
14:57 99.9 °F 59.9 °F 29.87 in NW 3.5 mph 3.5 mph 27 % 0.00 in
15:02 99.5 °F 58.5 °F 29.87 in West 3.5 mph 3.5 mph 26 % 0.00 in
15:07 99.2 °F 59.3 °F 29.86 in SE 5.8 mph 5.8 mph 27 % 0.00 in
15:12 99.2 °F 61.4 °F 29.86 in NW 4.6 mph 4.6 mph 29 % 0.00 in
15:17 99.0 °F 54.7 °F 29.86 in NW 4.6 mph 4.6 mph 23 % 0.00 in
15:22 98.8 °F 58.0 °F 29.86 in WNW 5.8 mph 5.8 mph 26 % 0.00 in
15:27 98.9 °F 58.0 °F 29.86 in NW 2.3 mph 2.3 mph 26 % 0.00 in
15:28 98.9 °F 58.0 °F 29.86 in NW 6.0 mph 6.0 mph 26 % 0.00 in
15:33 99.0 °F 54.7 °F 29.86 in West 1.2 mph 1.2 mph 23 % 0.00 in
15:38 99.1 °F 57.1 °F 29.85 in WNW 2.3 mph 2.3 mph 25 % 0.00 in
15:43 99.2 °F 56.1 °F 29.85 in NW 2.3 mph 2.3 mph 24 % 0.00 in
15:48 99.9 °F 55.5 °F 29.85 in WNW 3.5 mph 3.5 mph 23 % 0.00 in
15:53 99.8 °F 52.9 °F 29.84 in NW 4.6 mph 4.6 mph 21 % 0.00 in
15:58 99.7 °F 52.8 °F 29.84 in NW 3.5 mph 3.5 mph 21 % 0.00 in
16:03 99.9 °F 56.7 °F 29.84 in WNW 2.3 mph 2.3 mph 24 % 0.00 in
16:08 100.2 °F 58.0 °F 29.84 in NNW 3.5 mph 3.5 mph 25 % 0.00 in
16:13 100.1 °F 54.4 °F 29.84 in WSW 3.5 mph 3.5 mph 22 % 0.00 in
16:18 100.5 °F 58.3 °F 29.84 in NNE 2.3 mph 2.3 mph 25 % 0.00 in
16:23 100.3 °F 58.1 °F 29.84 in West 3.5 mph 3.5 mph 25 % 0.00 in
16:28 100.3 °F 58.1 °F 29.84 in WNW 3.5 mph 3.5 mph 25 % 0.00 in
16:33 100.5 °F 59.4 °F 29.83 in NW 2.3 mph 2.3 mph 26 % 0.00 in
16:38 100.9 °F 58.6 °F 29.83 in WNW 3.5 mph 3.5 mph 25 % 0.00 in
16:43 100.5 °F 59.4 °F 29.83 in North 5.8 mph 5.8 mph 26 % 0.00 in
16:48 100.2 °F 60.2 °F 29.83 in NW 3.5 mph 3.5 mph 27 % 0.00 in
16:53 100.3 °F 62.3 °F 29.83 in NW 2.3 mph 2.3 mph 29 % 0.00 in
16:58 100.5 °F 61.5 °F 29.82 in West 4.6 mph 4.6 mph 28 % 0.00 in
17:03 100.6 °F 60.5 °F 29.82 in WNW 3.5 mph 3.5 mph 27 % 0.00 in
17:04 100.6 °F 60.5 °F 29.82 in NW 3.5 mph 3.5 mph 27 % 0.00 in
17:09 100.4 °F 59.3 °F 29.82 in NW 3.5 mph 3.5 mph 26 % 0.00 in
17:14 100.6 °F 61.6 °F 29.82 in WNW 3.5 mph 3.5 mph 28 % 0.00 in
17:19 100.5 °F 59.4 °F 29.82 in WNW 3.0 mph 3.0 mph 26 % 0.00 in
17:24 100.5 °F 56.0 °F 29.82 in WNW 3.5 mph 3.5 mph 23 % 0.00 in
17:29 100.4 °F 58.2 °F 29.82 in NW 3.5 mph 3.5 mph 25 % 0.00 in
17:34 100.4 °F 58.2 °F 29.81 in NW 3.5 mph 3.5 mph 25 % 0.00 in
17:39 100.5 °F 59.4 °F 29.81 in NW 3.5 mph 3.5 mph 26 % 0.00 in
17:45 100.6 °F 60.5 °F 29.81 in West 2.3 mph 2.3 mph 27 % 0.00 in
17:50 100.7 °F 58.5 °F 29.81 in NW 3.5 mph 3.5 mph 25 % 0.00 in
17:55 100.5 °F 58.3 °F 29.81 in WNW 2.3 mph 2.3 mph 25 % 0.00 in
18:00 100.5 °F 57.2 °F 29.81 in NNW 4.0 mph 4.0 mph 24 % 0.00 in
18:05 100.3 °F 57.0 °F 29.80 in NW 2.3 mph 2.3 mph 24 % 0.00 in
18:10 100.2 °F 56.9 °F 29.81 in NW 3.5 mph 3.5 mph 24 % 0.00 in
18:15 100.3 °F 58.1 °F 29.81 in NW 2.3 mph 2.3 mph 25 % 0.00 in
18:20 100.3 °F 57.0 °F 29.81 in NW 3.5 mph 3.5 mph 24 % 0.00 in
18:25 100.0 °F 56.7 °F 29.81 in WNW 3.5 mph 3.5 mph 24 % 0.00 in
18:30 100.1 °F 58.0 °F 29.81 in WNW 1.2 mph 1.2 mph 25 % 0.00 in
18:35 100.0 °F 55.6 °F 29.81 in NW 3.5 mph 3.5 mph 23 % 0.00 in
18:40 100.0 °F 54.3 °F 29.81 in NW 2.3 mph 2.3 mph 22 % 0.00 in
18:45 99.8 °F 55.4 °F 29.81 in WNW 2.3 mph 2.3 mph 23 % 0.00 in
18:50 99.8 °F 55.4 °F 29.81 in NNW 2.3 mph 2.3 mph 23 % 0.00 in
18:55 99.0 °F 57.0 °F 29.81 in NW 3.5 mph 3.5 mph 25 % 0.00 in
19:00 98.2 °F 56.4 °F 29.81 in North 2.0 mph 2.0 mph 25 % 0.00 in
19:05 97.7 °F 58.1 °F 29.81 in Calm     27 % 0.00 in
19:10 97.0 °F 56.4 °F 29.81 in WNW 2.3 mph 2.3 mph 26 % 0.00 in
19:15 96.6 °F 57.1 °F 29.81 in NNW 2.3 mph 2.3 mph 27 % 0.00 in
19:20 96.0 °F 57.6 °F 29.81 in NW 1.2 mph 1.2 mph 28 % 0.00 in
19:25 95.3 °F 58.0 °F 29.81 in NW 1.2 mph   29 % 0.00 in
19:30 94.7 °F 59.4 °F 29.81 in NW 1.2 mph 1.2 mph 31 % 0.00 in
19:35 94.1 °F 59.7 °F 29.81 in WSW 2.3 mph 2.3 mph 32 % 0.00 in
19:40 93.5 °F 59.2 °F 29.82 in NNW 1.2 mph   32 % 0.00 in
19:45 92.9 °F 59.6 °F 29.82 in Calm     33 % 0.00 in
19:50 92.4 °F 59.1 °F 29.82 in Calm     33 % 0.00 in
19:55 92.0 °F 58.8 °F 29.82 in NW 1.2 mph   33 % 0.00 in
20:00 91.6 °F 58.4 °F 29.82 in Calm     33 % 0.00 in
20:05 91.2 °F 58.9 °F 29.82 in Calm     34 % 0.00 in
20:10 90.8 °F 60.2 °F 29.82 in Calm     36 % 0.00 in
20:11 90.7 °F 59.3 °F 29.82 in Calm     35 % 0.00 in
20:16 90.2 °F 60.4 °F 29.82 in Calm     37 % 0.00 in
20:21 89.6 °F 60.6 °F 29.82 in Calm     38 % 0.00 in
20:26 89.1 °F 60.2 °F 29.82 in Calm     38 % 0.00 in
20:31 88.6 °F 60.5 °F 29.82 in Calm     39 % 0.00 in
20:36 88.0 °F 61.3 °F 29.82 in Calm     41 % 0.00 in
20:41 87.4 °F 62.2 °F 29.82 in Calm     43 % 0.00 in
20:46 86.9 °F 63.0 °F 29.82 in Calm     45 % 0.00 in
20:51 86.4 °F 63.8 °F 29.82 in Calm     47 % 0.00 in
20:56 85.8 °F 62.6 °F 29.82 in Calm     46 % 0.00 in
21:01 85.3 °F 63.4 °F 29.82 in Calm     48 % 0.00 in
21:06 84.8 °F 62.9 °F 29.82 in Calm     48 % 0.00 in
21:11 84.5 °F 62.1 °F 29.82 in Calm     47 % 0.00 in
21:16 84.3 °F 63.6 °F 29.83 in Calm     50 % 0.00 in
21:21 84.0 °F 63.9 °F 29.83 in Calm     51 % 0.00 in
21:26 83.6 °F 63.6 °F 29.83 in Calm     51 % 0.00 in
21:31 83.2 °F 63.2 °F 29.83 in Calm     51 % 0.00 in
21:36 83.0 °F 63.6 °F 29.83 in Calm     52 % 0.00 in
21:41 82.9 °F 63.5 °F 29.83 in Calm     52 % 0.00 in
21:46 82.6 °F 63.7 °F 29.84 in Calm     53 % 0.00 in
21:51 82.4 °F 62.5 °F 29.84 in Calm     51 % 0.00 in
21:56 82.4 °F 63.5 °F 29.84 in Calm     53 % 0.00 in
22:01 82.4 °F 64.1 °F 29.84 in Calm     54 % 0.00 in
22:06 82.6 °F 62.6 °F 29.84 in Calm     51 % 0.00 in
22:11 83.2 °F 61.5 °F 29.84 in WNW 1.2 mph 1.2 mph 48 % 0.00 in
22:16 83.7 °F 62.5 °F 29.84 in Calm     49 % 0.00 in
22:21 83.6 °F 62.4 °F 29.84 in Calm     49 % 0.00 in
22:26 83.6 °F 62.4 °F 29.84 in Calm     49 % 0.00 in
22:31 83.3 °F 62.7 °F 29.84 in Calm     50 % 0.00 in
22:36 82.9 °F 62.9 °F 29.85 in Calm     51 % 0.00 in
22:41 82.2 °F 63.4 °F 29.85 in Calm     53 % 0.00 in
22:46 81.7 °F 64.0 °F 29.84 in Calm     55 % 0.00 in
22:52 81.0 °F 63.3 °F 29.84 in Calm     55 % 0.00 in
22:57 80.5 °F 62.8 °F 29.84 in Calm     55 % 0.00 in
23:02 80.3 °F 62.7 °F 29.84 in Calm     55 % 0.00 in
23:07 79.8 °F 64.2 °F 29.84 in Calm     59 % 0.00 in
23:12 79.3 °F 63.7 °F 29.84 in Calm     59 % 0.00 in
23:17 79.1 °F 63.1 °F 29.85 in Calm     58 % 0.00 in
23:22 78.9 °F 63.8 °F 29.85 in Calm     60 % 0.00 in
23:27 78.6 °F 63.1 °F 29.85 in Calm     59 % 0.00 in
23:32 78.5 °F 63.9 °F 29.85 in WNW 1.2 mph   61 % 0.00 in
23:37 78.5 °F 63.9 °F 29.85 in Calm     61 % 0.00 in
23:42 78.4 °F 63.4 °F 29.85 in Calm     60 % 0.00 in
23:47 78.3 °F 64.2 °F 29.85 in Calm     62 % 0.00 in
23:52 78.0 °F 64.4 °F 29.85 in Calm     63 % 0.00 in
23:57 77.9 °F 63.8 °F 29.85 in Calm     62 % 0.00 in
Park Place, Exeter, Tulare County, California, USA
Compliments of Weather Underground - 2.75 mb